Time;durP1;ratioP1;P1;durP2;ratioP2;P2;SDS_P1;SDS_P2;PMS_P1;PMS_P2;Temp;Humidity;BMP_temperature;BMP_pressure;BME280_temperature;BME280_humidity;BME280_pressure;Samples;Min_cycle;Max_cycle;Signal;HPM_P1;HPM_P2
2022/11/22 00:05:18;;;;;;;5.88;0.60;;;;;;;18.58;43.19;99024.38;16127861;19;129310;-38
2022/11/22 00:10:40;;;;;;;2.58;0.57;;;;;;;18.54;43.09;99023.31;16130065;19;129548;-38
2022/11/22 00:16:03;;;;;;;1.63;0.52;;;;;;;18.53;42.79;99015.31;16127164;19;129766;-44
2022/11/22 00:21:25;;;;;;;4.32;0.50;;;;;;;18.52;43.23;99019.19;16126234;19;129991;-40
2022/11/22 00:26:46;;;;;;;1.17;0.40;;;;;;;18.48;42.98;99013.41;16125109;19;129580;-39
2022/11/22 00:32:08;;;;;;;0.77;0.40;;;;;;;18.46;43.12;99008.16;16123163;19;129611;-40
2022/11/22 00:37:30;;;;;;;0.57;0.30;;;;;;;18.44;43.23;99028.97;16123463;19;130984;-39
2022/11/22 00:42:53;;;;;;;1.55;0.40;;;;;;;18.43;43.06;99030.06;16123081;19;129882;-41
2022/11/22 00:48:15;;;;;;;3.95;0.90;;;;;;;18.41;42.80;99038.69;16124281;19;130178;-39
2022/11/22 00:53:37;;;;;;;3.83;0.68;;;;;;;18.38;42.81;99019.84;16124969;19;134635;-41
2022/11/22 00:58:58;;;;;;;0.95;0.30;;;;;;;18.37;42.79;99043.09;16122709;19;129078;-38
2022/11/22 01:04:20;;;;;;;2.47;0.63;;;;;;;18.36;42.91;99035.09;16120416;19;129563;-38
2022/11/22 01:09:42;;;;;;;2.50;0.60;;;;;;;18.33;43.13;99042.06;16122349;19;130513;-38
2022/11/22 01:15:04;;;;;;;1.15;0.40;;;;;;;18.32;42.76;99037.63;16122311;19;130043;-41
2022/11/22 01:20:26;;;;;;;3.58;0.40;;;;;;;18.30;42.58;99040.66;16120701;19;129377;-39
2022/11/22 01:25:48;;;;;;;1.90;0.55;;;;;;;18.29;42.64;99052.03;16123885;19;130003;-39
2022/11/22 01:31:09;;;;;;;0.82;0.43;;;;;;;18.25;42.62;99049.03;16123779;19;129491;-39
2022/11/22 01:36:31;;;;;;;3.10;0.80;;;;;;;18.25;42.66;99053.72;16122187;19;129451;-47
2022/11/22 01:41:53;;;;;;;1.48;0.50;;;;;;;18.24;42.64;99049.31;16122147;19;129241;-42
2022/11/22 01:47:22;;;;;;;1.40;0.57;;;;;;;18.22;42.52;99055.16;16121202;19;129667;-38
2022/11/22 01:52:44;;;;;;;0.88;0.32;;;;;;;18.20;42.54;99056.56;16126321;19;129418;-39
2022/11/22 01:58:07;;;;;;;2.95;0.90;;;;;;;18.19;42.58;99074.28;16123654;19;129099;-38
2022/11/22 02:03:32;;;;;;;1.52;0.50;;;;;;;18.18;42.87;99076.19;16120038;19;129805;-38
2022/11/22 02:09:03;;;;;;;2.42;0.63;;;;;;;18.17;42.82;99091.16;16120490;19;129953;-38
2022/11/22 02:14:26;;;;;;;2.58;0.52;;;;;;;18.15;42.85;99088.69;16113269;19;129622;-39
2022/11/22 02:19:48;;;;;;;2.88;0.47;;;;;;;18.13;42.50;99088.13;16119166;19;129806;-41
2022/11/22 02:25:19;;;;;;;2.97;1.05;;;;;;;18.12;42.69;99088.44;16113744;19;129482;-38
2022/11/22 02:30:41;;;;;;;1.42;0.43;;;;;;;18.11;42.64;99095.09;16118972;19;129575;-38
2022/11/22 02:36:03;;;;;;;2.55;0.60;;;;;;;18.09;42.65;99089.81;16118935;19;129775;-38
2022/11/22 02:41:25;;;;;;;2.20;0.65;;;;;;;18.09;42.70;99089.00;16116982;19;129908;-38
2022/11/22 02:46:52;;;;;;;2.20;0.70;;;;;;;18.09;42.62;99103.66;16117474;19;129430;-38
2022/11/22 02:52:17;;;;;;;1.85;0.60;;;;;;;18.08;42.49;99095.66;16119212;19;129325;-38
2022/11/22 02:57:38;;;;;;;2.88;0.70;;;;;;;18.04;42.65;99089.88;16116341;19;130234;-38
2022/11/22 03:03:00;;;;;;;3.47;0.60;;;;;;;18.03;42.36;99090.97;16116881;19;129667;-38
2022/11/22 03:08:22;;;;;;;2.00;0.65;;;;;;;18.03;42.67;99095.69;16113651;19;130372;-48
2022/11/22 03:13:44;;;;;;;4.22;0.82;;;;;;;18.01;42.30;99098.75;16120530;19;129328;-50
2022/11/22 03:19:06;;;;;;;1.98;0.60;;;;;;;17.99;42.66;99100.97;16113820;19;129220;-45
2022/11/22 03:24:27;;;;;;;2.55;0.47;;;;;;;17.99;42.42;99098.19;16114338;19;129610;-47
2022/11/22 03:29:49;;;;;;;4.63;0.63;;;;;;;17.97;42.33;99103.22;16126124;19;129276;-42
2022/11/22 03:35:11;;;;;;;1.98;0.75;;;;;;;17.96;42.25;99107.09;16131333;19;129668;-46
2022/11/22 03:40:33;;;;;;;2.67;0.60;;;;;;;17.95;42.59;99127.56;16127595;19;129345;-44
2022/11/22 03:45:55;;;;;;;2.45;0.85;;;;;;;17.93;42.44;99124.25;16128991;19;129786;-50
2022/11/22 03:51:17;;;;;;;2.13;0.80;;;;;;;17.92;42.54;99128.13;16128021;19;130513;-49
2022/11/22 03:56:39;;;;;;;3.25;0.63;;;;;;;17.91;42.64;99140.31;16127937;19;129871;-44
2022/11/22 04:02:00;;;;;;;1.70;0.70;;;;;;;17.90;42.47;99141.41;16129226;19;129333;-47
2022/11/22 04:07:22;;;;;;;1.98;0.55;;;;;;;17.89;42.53;99157.19;16126197;19;130247;-45
2022/11/22 04:12:44;;;;;;;2.58;0.63;;;;;;;17.88;42.41;99147.25;16129375;19;129269;-50
2022/11/22 04:18:11;;;;;;;3.38;0.77;;;;;;;17.87;42.06;99161.34;16128416;19;129914;-49
2022/11/22 04:23:33;;;;;;;3.33;0.68;;;;;;;17.87;42.41;99155.81;16126204;19;129323;-46
2022/11/22 04:28:55;;;;;;;1.63;0.55;;;;;;;17.84;42.25;99152.53;16125876;19;129543;-49
2022/11/22 04:34:30;;;;;;;3.33;0.87;;;;;;;17.83;42.17;99153.63;16126799;19;129398;-38
2022/11/22 04:39:52;;;;;;;3.95;0.63;;;;;;;17.81;41.84;99147.56;16127116;19;130096;-38
2022/11/22 04:45:14;;;;;;;2.72;0.63;;;;;;;17.80;42.08;99143.13;16123992;19;129537;-41
2022/11/22 04:56:16;;;;;;;2.72;0.50;;;;;;;17.78;42.06;99145.34;16123480;19;131531;-38
2022/11/22 05:01:38;;;;;;;3.60;0.68;;;;;;;17.77;41.77;99142.88;16121761;19;129643;-38
2022/11/22 05:07:01;;;;;;;2.65;0.75;;;;;;;17.76;41.83;99141.22;16123059;19;128993;-40
2022/11/22 05:12:22;;;;;;;2.85;0.60;;;;;;;17.75;42.04;99148.66;16122828;19;129569;-39
2022/11/22 05:17:44;;;;;;;3.45;0.98;;;;;;;17.74;41.75;99149.78;16122081;19;130077;-38
2022/11/22 05:28:46;;;;;;;2.08;0.55;;;;;;;17.71;42.08;99155.06;16124535;19;130093;-38
2022/11/22 05:34:08;;;;;;;2.75;0.50;;;;;;;17.70;42.26;99137.66;16124349;19;131155;-38
2022/11/22 05:39:30;;;;;;;1.73;0.60;;;;;;;17.68;42.05;99123.28;16121006;19;130758;-38
2022/11/22 05:44:52;;;;;;;1.45;0.60;;;;;;;17.68;41.78;99137.09;16122576;19;129788;-38
2022/11/22 05:50:14;;;;;;;1.67;0.57;;;;;;;17.67;41.79;99132.69;16117192;19;129409;-38
2022/11/22 05:55:36;;;;;;;2.25;0.60;;;;;;;17.66;42.17;99133.78;16120779;19;129509;-39
2022/11/22 06:01:13;;;;;;;1.15;0.50;;;;;;;17.69;42.35;99144.28;16120071;19;129198;-38
2022/11/22 06:06:35;;;;;;;3.22;0.60;;;;;;;17.67;42.38;99138.22;16120924;19;129622;-41
2022/11/22 06:11:56;;;;;;;1.05;0.40;;;;;;;17.66;42.20;99151.19;16120253;19;130968;-39
2022/11/22 06:17:18;;;;;;;1.60;0.50;;;;;;;17.67;41.94;99154.81;16118078;19;131018;-38
2022/11/22 06:22:40;;;;;;;3.20;0.50;;;;;;;17.65;42.31;99157.88;16118186;19;129787;-38
2022/11/22 06:28:02;;;;;;;1.92;0.60;;;;;;;17.67;42.01;99168.63;16121599;19;129671;-38
2022/11/22 06:33:24;;;;;;;1.50;0.40;;;;;;;17.65;42.14;99171.69;16118313;19;130083;-37
2022/11/22 06:38:45;;;;;;;5.53;0.88;;;;;;;17.66;42.29;99180.81;16124424;19;129595;-39
2022/11/22 06:44:08;;;;;;;3.03;0.50;;;;;;;17.66;41.95;99180.81;16118977;19;130926;-38
2022/11/22 06:49:30;;;;;;;4.03;0.90;;;;;;;17.65;42.28;99190.22;16113720;19;128877;-38
2022/11/22 06:54:52;;;;;;;3.80;0.55;;;;;;;17.63;41.86;99189.66;16114849;19;131215;-38
2022/11/22 07:00:14;;;;;;;9.98;1.00;;;;;;;17.66;42.07;99180.81;16114912;19;129504;-38
2022/11/22 07:05:36;;;;;;;2.42;0.82;;;;;;;17.75;41.94;99187.41;16129550;19;133537;-42
2022/11/22 07:11:07;;;;;;;2.38;0.50;;;;;;;17.91;41.50;99177.09;16131420;19;129977;-39
2022/11/22 07:16:29;;;;;;;4.68;0.70;;;;;;;18.00;41.64;99174.56;16127617;19;129363;-38
2022/11/22 07:21:52;;;;;;;5.78;0.85;;;;;;;18.05;41.49;99177.31;16129892;19;130102;-38
2022/11/22 07:27:14;;;;;;;4.18;0.80;;;;;;;18.20;41.26;99190.22;16131059;19;129569;-38
2022/11/22 07:32:36;;;;;;;4.05;0.60;;;;;;;18.53;40.90;99198.06;16133714;19;129377;-38
2022/11/22 07:37:58;;;;;;;3.33;0.80;;;;;;;18.92;40.34;99186.13;16131543;19;129191;-40
2022/11/22 07:43:20;;;;;;;5.20;0.70;;;;;;;19.23;40.23;99188.63;16131708;19;130440;-39
2022/11/22 07:48:41;;;;;;;1.75;0.50;;;;;;;19.38;40.13;99184.91;16129624;19;135885;-38
2022/11/22 07:54:03;;;;;;;3.88;0.85;;;;;;;19.44;39.95;99185.66;16129257;19;129994;-39
2022/11/22 07:59:25;;;;;;;3.08;0.57;;;;;;;19.42;39.51;99201.75;16127052;19;129126;-39
2022/11/22 08:04:47;;;;;;;4.43;0.70;;;;;;;19.35;39.71;99202.13;16129089;19;132070;-40
2022/11/22 08:10:13;;;;;;;3.60;0.70;;;;;;;19.24;39.85;99198.59;16126430;19;130344;-38
2022/11/22 08:15:35;;;;;;;2.47;0.60;;;;;;;19.13;39.66;99197.88;16125577;19;129358;-41
2022/11/22 08:21:17;;;;;;;1.92;0.70;;;;;;;19.04;39.38;99199.59;16128804;19;129485;-39
2022/11/22 08:26:39;;;;;;;1.90;0.50;;;;;;;18.89;40.25;99192.25;16129433;19;129882;-39
2022/11/22 08:32:02;;;;;;;5.05;0.77;;;;;;;18.80;40.10;99188.47;16126761;19;129672;-39
2022/11/22 08:37:24;;;;;;;1.15;0.60;;;;;;;18.69;40.00;99191.31;16124417;19;130027;-40
2022/11/22 08:42:45;;;;;;;3.45;0.57;;;;;;;18.60;40.23;99190.25;16127071;19;129380;-39
2022/11/22 08:48:07;;;;;;;2.92;0.70;;;;;;;18.53;40.33;99187.00;16129028;19;130165;-41
2022/11/22 08:53:31;;;;;;;3.78;0.50;;;;;;;18.57;40.47;99182.56;16127447;19;129720;-39
2022/11/22 08:58:53;;;;;;;7.38;1.13;;;;;;;18.66;39.62;99193.81;16126805;19;129308;-39
2022/11/22 09:04:15;;;;;;;9.80;0.93;;;;;;;18.87;39.33;99200.03;16124899;19;129662;-39
2022/11/22 09:09:36;;;;;;;17.23;0.98;;;;;;;19.13;39.06;99191.47;16127688;19;130366;-39
2022/11/22 09:14:58;;;;;;;5.60;0.77;;;;;;;19.35;38.68;99197.38;16125779;19;130696;-39
2022/11/22 09:20:20;;;;;;;5.18;0.88;;;;;;;19.54;38.16;99182.78;16122511;19;129979;-39
2022/11/22 09:25:42;;;;;;;5.90;0.77;;;;;;;19.71;38.41;99195.31;16121286;19;129806;-40
2022/11/22 09:31:12;;;;;;;9.10;1.15;;;;;;;19.81;38.10;99192.44;16123000;19;129607;-39
2022/11/22 09:36:34;;;;;;;15.52;1.30;;;;;;;19.82;38.17;99188.53;16123747;19;129644;-40
2022/11/22 09:42:15;;;;;;;7.03;0.63;;;;;;;19.82;37.58;99188.53;16122053;19;129049;-40
2022/11/22 09:48:14;;;;;;;5.55;0.90;;;;;;;19.77;37.93;99192.19;16123782;19;130537;-40
2022/11/22 09:53:44;;;;;;;7.30;0.85;;;;;;;19.63;37.39;99185.72;16123190;19;129789;-43
2022/11/22 09:59:15;;;;;;;5.78;0.80;;;;;;;19.46;37.20;99186.16;16121419;19;129779;-39
2022/11/22 10:04:46;;;;;;;5.88;1.17;;;;;;;19.32;37.27;99191.59;16120814;19;134099;-41
2022/11/22 10:10:17;;;;;;;4.22;0.90;;;;;;;19.22;37.24;99186.97;16116263;19;131323;-40
2022/11/22 10:15:59;;;;;;;5.85;0.90;;;;;;;19.13;37.45;99181.25;16125935;19;129524;-39
2022/11/22 10:21:21;;;;;;;5.68;0.90;;;;;;;19.06;37.70;99189.91;16115047;19;129349;-40
2022/11/22 10:26:43;;;;;;;10.43;1.30;;;;;;;19.00;38.02;99185.50;16120370;19;129934;-40
2022/11/22 10:32:22;;;;;;;5.80;1.08;;;;;;;18.96;38.30;99173.34;16117475;19;129491;-41
2022/11/22 10:37:51;;;;;;;4.03;1.05;;;;;;;18.91;38.74;99178.94;16125712;19;130413;-39
2022/11/22 10:43:36;;;;;;;4.40;1.02;;;;;;;18.87;38.73;99164.84;16131453;19;129854;-44
2022/11/22 10:49:18;;;;;;;3.13;0.77;;;;;;;18.85;39.17;99160.69;16132923;19;130334;-39
2022/11/22 10:55:02;;;;;;;6.50;1.05;;;;;;;18.81;38.82;99159.66;16132870;19;129582;-43
2022/11/22 11:00:25;;;;;;;5.03;0.93;;;;;;;18.76;39.34;99154.97;16131034;19;129583;-43
2022/11/22 11:05:57;;;;;;;3.38;0.73;;;;;;;18.74;39.27;99152.47;16131320;19;129719;-41
2022/11/22 11:11:41;;;;;;;3.50;0.98;;;;;;;18.71;39.63;99153.06;16129920;19;129718;-40
2022/11/22 11:17:04;;;;;;;4.10;0.77;;;;;;;18.74;39.81;99152.47;16131274;19;129337;-40
2022/11/22 11:22:29;;;;;;;3.35;0.85;;;;;;;18.89;39.35;99148.72;16129853;19;129868;-40
2022/11/22 11:28:19;;;;;;;1.88;0.60;;;;;;;19.15;39.48;99136.59;16129507;19;129816;-41
2022/11/22 11:33:41;;;;;;;2.28;0.50;;;;;;;19.38;39.44;99130.25;16130431;19;129846;-40
2022/11/22 11:39:02;;;;;;;2.78;0.65;;;;;;;19.60;38.85;99131.66;16130408;19;130485;-39
2022/11/22 11:44:33;;;;;;;4.15;0.40;;;;;;;19.80;38.70;99130.56;16127854;19;129776;-41
2022/11/22 11:49:55;;;;;;;1.25;0.45;;;;;;;19.95;38.97;99132.28;16127225;19;129428;-43
2022/11/22 11:55:17;;;;;;;1.77;0.70;;;;;;;20.04;38.76;99126.13;16127061;19;130994;-42
2022/11/22 12:00:39;;;;;;;2.63;0.40;;;;;;;20.06;38.70;99112.78;16129476;19;129209;-39
2022/11/22 12:06:11;;;;;;;2.40;0.40;;;;;;;20.04;38.49;99121.38;16127414;19;129799;-39
2022/11/22 12:11:45;;;;;;;1.20;0.60;;;;;;;19.97;38.68;99127.25;16126583;19;129960;-39
2022/11/22 12:17:17;;;;;;;5.00;0.50;;;;;;;19.86;38.94;99117.44;16127214;19;129461;-40
2022/11/22 12:22:50;;;;;;;2.03;0.47;;;;;;;19.76;38.82;99120.34;16126384;19;129800;-39
2022/11/22 12:28:20;;;;;;;4.43;0.50;;;;;;;19.65;39.27;99122.44;16125910;19;131144;-44
2022/11/22 12:33:46;;;;;;;6.85;0.63;;;;;;;19.53;39.26;99128.41;16123150;19;131642;-40
2022/11/22 12:39:13;;;;;;;2.63;0.50;;;;;;;19.45;39.23;99129.06;16124855;19;129765;-39
2022/11/22 12:44:38;;;;;;;5.22;0.80;;;;;;;19.38;39.37;99134.97;16125735;19;130875;-39
2022/11/22 12:50:13;;;;;;;2.88;0.50;;;;;;;19.31;39.56;99140.88;16123033;19;129679;-39
2022/11/22 12:56:08;;;;;;;7.32;0.85;;;;;;;19.23;39.30;99119.31;16122606;19;129391;-39
2022/11/22 13:01:42;;;;;;;3.55;0.40;;;;;;;19.16;39.85;99111.31;16122251;19;129563;-40
2022/11/22 13:07:14;;;;;;;1.75;0.40;;;;;;;19.12;39.96;99114.97;16128243;19;129711;-39
2022/11/22 13:12:39;;;;;;;7.20;0.40;;;;;;;19.05;40.05;99116.19;16124496;19;129400;-39
2022/11/22 13:18:01;;;;;;;4.60;0.70;;;;;;;18.99;40.13;99117.34;16126263;19;133927;-39
2022/11/22 13:23:48;;;;;;;3.35;0.45;;;;;;;18.95;39.90;99112.69;16125098;19;129400;-39
2022/11/22 13:29:21;;;;;;;1.90;0.55;;;;;;;18.87;39.99;99122.44;16126669;19;129465;-38
2022/11/22 13:35:04;;;;;;;4.65;0.52;;;;;;;18.83;40.13;99113.09;16122900;19;129515;-39
2022/11/22 13:40:39;;;;;;;3.50;0.32;;;;;;;18.76;40.59;99114.22;16121413;19;129582;-38
2022/11/22 13:46:02;;;;;;;1.05;0.25;;;;;;;18.73;40.53;99131.44;16125352;19;129627;-39
2022/11/22 13:52:04;;;;;;;2.53;0.50;;;;;;;18.74;40.31;99126.72;16120430;19;129888;-39
2022/11/22 13:57:29;;;;;;;0.57;0.30;;;;;;;18.88;40.15;99124.09;16120110;19;128981;-39
2022/11/22 14:02:53;;;;;;;;;;;;;;;19.13;40.10;99116.66;16121120;19;129582;-39
2022/11/22 14:08:35;;;;;;;0.55;0.20;;;;;;;19.46;39.67;99120.47;16121862;19;129155;-39
2022/11/22 14:14:15;;;;;;;0.75;0.22;;;;;;;19.76;38.92;99115.63;16120325;19;131037;-40
2022/11/22 14:20:00;;;;;;;0.85;0.22;;;;;;;19.98;39.14;99109.50;16122002;19;129471;-43
2022/11/22 14:25:30;;;;;;;0.88;0.17;;;;;;;20.18;38.46;99106.75;16120235;19;135221;-38
2022/11/22 14:30:52;;;;;;;2.55;0.43;;;;;;;20.26;38.36;99108.81;16118947;19;129836;-41
2022/11/22 14:36:14;;;;;;;3.30;0.50;;;;;;;20.27;38.37;99111.31;16118444;19;129331;-39
2022/11/22 14:41:42;;;;;;;3.92;0.30;;;;;;;20.22;38.28;99113.34;16121081;19;130630;-40
2022/11/22 14:47:13;;;;;;;5.95;0.40;;;;;;;20.13;38.00;99111.25;16116096;19;129450;-40
2022/11/22 14:52:35;;;;;;;1.35;0.35;;;;;;;20.03;38.42;99110.59;16117533;19;128904;-40
2022/11/22 14:58:04;;;;;;;5.78;0.32;;;;;;;19.90;38.27;99107.41;16117563;19;129461;-40
2022/11/22 15:03:58;;;;;;;4.95;0.43;;;;;;;19.80;38.27;99118.66;16117049;19;130463;-40
2022/11/22 15:09:42;;;;;;;9.98;0.52;;;;;;;19.68;38.79;99119.06;16117737;19;129808;-41
2022/11/22 15:15:35;;;;;;;5.45;0.40;;;;;;;19.61;38.76;99124.97;16116498;19;130477;-40
2022/11/22 15:21:26;;;;;;;3.17;0.30;;;;;;;19.52;38.87;99129.53;16116154;19;130043;-39
2022/11/22 15:27:18;;;;;;;13.77;1.00;;;;;;;19.43;39.04;99139.63;16128763;19;129985;-40
2022/11/22 15:33:00;;;;;;;3.03;0.50;;;;;;;19.33;38.90;99143.34;16123068;19;129347;-40
2022/11/22 15:38:42;;;;;;;8.32;0.50;;;;;;;19.26;39.21;99149.25;16124158;19;129647;-40
2022/11/22 15:44:24;;;;;;;7.32;0.40;;;;;;;19.19;39.23;99145.97;16124970;19;130371;-42
2022/11/22 15:50:16;;;;;;;6.55;0.43;;;;;;;19.15;39.43;99167.06;16129146;19;129818;-44
2022/11/22 15:56:33;;;;;;;3.83;0.68;;;;;;;19.10;39.44;99161.56;16131783;19;129203;-43
2022/11/22 16:02:19;;;;;;;3.50;0.40;;;;;;;19.03;39.62;99164.69;16129555;19;129624;-39
2022/11/22 16:07:45;;;;;;;6.20;0.73;;;;;;;18.99;39.70;99170.00;16129400;19;129632;-42
2022/11/22 16:13:19;;;;;;;6.15;0.80;;;;;;;18.97;39.81;99163.09;16126136;19;129802;-38
2022/11/22 16:18:43;;;;;;;2.90;0.40;;;;;;;18.90;40.20;99168.97;16130800;19;129081;-42
2022/11/22 16:24:15;;;;;;;7.90;0.75;;;;;;;18.90;40.20;99180.88;16125456;19;129690;-40
2022/11/22 16:29:37;;;;;;;2.85;0.47;;;;;;;18.89;40.08;99190.28;16125546;19;133783;-39
2022/11/22 16:34:58;;;;;;;3.78;0.50;;;;;;;18.88;40.08;99188.66;16123608;19;129706;-40
2022/11/22 16:40:42;;;;;;;4.55;0.40;;;;;;;18.88;40.19;99198.91;16130466;19;130566;-41
2022/11/22 16:46:04;;;;;;;6.25;0.45;;;;;;;19.00;39.94;99191.03;16127786;19;129175;-42
2022/11/22 16:51:28;;;;;;;3.47;0.30;;;;;;;19.23;39.60;99188.63;16124195;19;130134;-43
2022/11/22 16:56:50;;;;;;;1.85;0.40;;;;;;;19.51;39.23;99189.72;16124274;19;129538;-39
2022/11/22 17:02:15;;;;;;;1.17;0.50;;;;;;;19.80;38.95;99190.78;16121646;19;129966;-42
2022/11/22 17:07:36;;;;;;;0.60;0.23;;;;;;;20.03;38.81;99196.63;16125499;19;135129;-39
2022/11/22 17:12:58;;;;;;;0.85;0.30;;;;;;;20.20;38.46;99187.78;16125620;19;130397;-42
2022/11/22 17:18:21;;;;;;;3.42;0.70;;;;;;;20.29;38.61;99200.72;16125114;19;131005;-41
2022/11/22 17:23:43;;;;;;;2.75;0.52;;;;;;;20.32;38.53;99195.66;16121699;19;129371;-39
2022/11/22 17:29:05;;;;;;;5.35;0.52;;;;;;;20.34;38.70;99201.75;16123242;19;129448;-40
2022/11/22 17:34:34;;;;;;;4.32;0.70;;;;;;;20.33;38.79;99202.88;16122865;19;130529;-39
2022/11/22 17:39:56;;;;;;;1.13;0.50;;;;;;;20.27;38.74;99216.84;16123625;19;129597;-39
2022/11/22 17:45:18;;;;;;;3.22;0.55;;;;;;;20.20;38.94;99213.59;16121130;19;129719;-41
2022/11/22 17:50:39;;;;;;;2.10;0.68;;;;;;;20.11;38.95;99215.38;16123373;19;130365;-40
2022/11/22 17:56:02;;;;;;;6.45;0.80;;;;;;;20.02;39.69;99219.97;16121870;19;132540;-41
2022/11/22 18:01:31;;;;;;;9.45;1.35;;;;;;;19.97;40.12;99221.63;16120147;19;129305;-39
2022/11/22 18:06:53;;;;;;;5.68;0.98;;;;;;;19.90;40.00;99229.50;16119743;19;129708;-40
2022/11/22 18:12:14;;;;;;;18.77;1.20;;;;;;;19.87;40.23;99223.72;16118935;19;129633;-41
2022/11/22 18:17:39;;;;;;;10.40;1.27;;;;;;;19.96;40.73;99227.50;16119704;19;129618;-41
2022/11/22 18:23:01;;;;;;;8.70;1.25;;;;;;;20.06;40.27;99232.13;16123139;19;130004;-40
2022/11/22 18:28:23;;;;;;;17.80;2.00;;;;;;;20.11;40.31;99226.50;16119453;19;129193;-41
2022/11/22 18:33:45;;;;;;;13.45;1.20;;;;;;;20.08;40.33;99227.09;16118412;19;129348;-41
2022/11/22 18:39:07;;;;;;;20.67;1.35;;;;;;;20.02;40.65;99229.09;16120304;19;131764;-40
2022/11/22 18:44:29;;;;;;;12.07;1.35;;;;;;;19.95;40.56;99229.44;16117284;19;129264;-40
2022/11/22 18:49:51;;;;;;;4.78;0.82;;;;;;;19.88;40.36;99230.94;16119657;19;129321;-40
2022/11/22 18:55:16;;;;;;;9.27;1.70;;;;;;;19.80;40.41;99240.75;16117246;19;130037;-42
2022/11/22 19:00:38;;;;;;;10.27;1.10;;;;;;;19.71;40.42;99248.03;16127517;19;129611;-40
2022/11/22 19:06:02;;;;;;;9.32;1.50;;;;;;;19.64;40.87;99246.44;16133628;19;129738;-40
2022/11/22 19:11:25;;;;;;;7.10;1.37;;;;;;;19.57;41.20;99248.72;16131964;19;129907;-39
2022/11/22 19:16:46;;;;;;;14.55;1.63;;;;;;;19.53;40.99;99264.31;16135007;19;129956;-40
2022/11/22 19:22:08;;;;;;;16.70;1.88;;;;;;;19.51;41.05;99261.00;16130402;19;129907;-41
2022/11/22 19:27:30;;;;;;;11.98;1.60;;;;;;;19.49;40.97;99266.88;16128388;19;130760;-40
2022/11/22 19:32:51;;;;;;;7.70;1.58;;;;;;;19.62;40.53;99272.84;16129952;19;129894;-44
2022/11/22 19:38:13;;;;;;;9.50;1.13;;;;;;;19.80;40.40;99257.38;16128155;19;130085;-40
2022/11/22 19:43:36;;;;;;;4.72;1.08;;;;;;;19.97;39.71;99256.91;16129863;19;129651;-44
2022/11/22 19:48:58;;;;;;;5.75;1.00;;;;;;;20.13;39.65;99255.59;16127422;19;129488;-41
2022/11/22 19:54:20;;;;;;;8.25;1.05;;;;;;;20.29;39.64;99259.03;16126633;19;130256;-41
2022/11/22 19:59:42;;;;;;;6.82;1.85;;;;;;;20.43;39.02;99261.06;16130426;19;129738;-42
2022/11/22 20:05:04;;;;;;;10.18;1.17;;;;;;;20.70;39.07;99262.31;16126186;19;130069;-41
2022/11/22 20:10:26;;;;;;;4.13;0.90;;;;;;;20.98;38.57;99268.88;16125304;19;129420;-41
2022/11/22 20:15:47;;;;;;;3.65;1.13;;;;;;;21.20;38.40;99275.75;16127748;19;129617;-45
2022/11/22 20:21:09;;;;;;;8.95;1.23;;;;;;;21.40;37.99;99280.16;16127651;19;130544;-40
2022/11/22 20:26:32;;;;;;;4.38;1.00;;;;;;;21.56;38.08;99282.66;16126564;19;130166;-44
2022/11/22 20:31:55;;;;;;;5.40;1.00;;;;;;;21.69;37.73;99287.44;16125092;19;129538;-43
2022/11/22 20:37:17;;;;;;;4.20;1.27;;;;;;;21.71;37.76;99301.88;16124950;19;130698;-43
2022/11/22 20:42:39;;;;;;;6.85;1.50;;;;;;;21.63;37.57;99302.59;16125355;19;129557;-42
2022/11/22 20:48:00;;;;;;;5.10;0.95;;;;;;;21.45;37.54;99302.28;16125506;19;130437;-42
2022/11/22 20:53:23;;;;;;;5.10;0.88;;;;;;;21.31;37.25;99310.59;16127802;19;130187;-42
2022/11/22 20:58:45;;;;;;;6.38;1.17;;;;;;;21.17;37.65;99310.53;16127672;19;130580;-42
2022/11/22 21:04:06;;;;;;;4.70;1.13;;;;;;;21.03;38.22;99316.06;16123031;19;129568;-42
2022/11/22 21:09:28;;;;;;;5.60;0.90;;;;;;;20.90;38.15;99325.16;16121478;19;130249;-43
2022/11/22 21:14:50;;;;;;;8.80;1.05;;;;;;;20.78;38.09;99331.19;16125470;19;129344;-43
2022/11/22 21:20:14;;;;;;;6.85;0.90;;;;;;;20.64;38.37;99335.78;16121025;19;129559;-43
2022/11/22 21:25:36;;;;;;;4.47;1.15;;;;;;;20.53;38.73;99335.09;16114216;19;130425;-43
2022/11/22 21:30:57;;;;;;;7.35;0.88;;;;;;;20.44;38.86;99348.81;16119824;19;130456;-43
2022/11/22 21:36:22;;;;;;;5.07;1.30;;;;;;;20.37;38.96;99363.03;16118964;19;129346;-44
2022/11/22 21:41:44;;;;;;;14.20;1.73;;;;;;;20.31;39.25;99377.31;16121965;19;129507;-44
2022/11/22 21:47:06;;;;;;;12.68;1.67;;;;;;;20.23;39.54;99379.59;16122069;19;129456;-43
2022/11/22 21:52:29;;;;;;;6.65;1.00;;;;;;;20.16;39.23;99395.81;16118560;19;129422;-45
2022/11/22 21:57:51;;;;;;;22.50;1.95;;;;;;;20.09;39.39;99395.31;16120184;19;129582;-43
2022/11/22 22:03:13;;;;;;;10.18;1.33;;;;;;;20.02;39.08;99403.16;16120391;19;129788;-41
2022/11/22 22:08:35;;;;;;;9.13;1.33;;;;;;;19.95;39.28;99407.06;16118272;19;129668;-43
2022/11/22 22:13:57;;;;;;;5.30;1.25;;;;;;;19.88;39.78;99406.59;16120285;19;133284;-48
2022/11/22 22:19:19;;;;;;;6.75;1.13;;;;;;;19.84;39.61;99405.50;16119542;19;129288;-43
2022/11/22 22:24:41;;;;;;;2.95;0.77;;;;;;;19.79;39.64;99408.34;16120739;19;130143;-42
2022/11/22 22:30:03;;;;;;;4.53;0.95;;;;;;;19.73;40.02;99412.28;16117732;19;129230;-43
2022/11/22 22:35:25;;;;;;;5.05;0.90;;;;;;;19.65;39.72;99420.13;16130769;19;129739;-42
2022/11/22 22:40:54;;;;;;;6.07;0.95;;;;;;;19.62;40.00;99422.66;16134653;19;129612;-43
2022/11/22 22:46:18;;;;;;;4.80;1.20;;;;;;;19.56;39.88;99421.84;16131946;19;129262;-42
2022/11/22 22:51:40;;;;;;;1.85;0.63;;;;;;;19.51;40.02;99430.22;16133898;19;129672;-42
2022/11/22 22:57:02;;;;;;;2.95;0.80;;;;;;;19.46;40.06;99442.16;16130680;19;130674;-42
2022/11/22 23:02:24;;;;;;;1.85;0.70;;;;;;;19.42;40.23;99451.34;16131303;19;129268;-44
2022/11/22 23:07:46;;;;;;;2.72;0.60;;;;;;;19.37;40.17;99455.00;16134844;19;129451;-42
2022/11/22 23:13:07;;;;;;;2.70;0.70;;;;;;;19.34;40.62;99459.16;16132325;19;129530;-41
2022/11/22 23:18:29;;;;;;;2.72;0.70;;;;;;;19.31;40.24;99470.84;16132341;19;129541;-43
2022/11/22 23:23:52;;;;;;;2.22;0.63;;;;;;;19.28;40.25;99457.53;16130943;19;129569;-41
2022/11/22 23:29:13;;;;;;;2.65;0.60;;;;;;;19.24;40.50;99491.66;16131235;19;130765;-43
2022/11/22 23:34:35;;;;;;;4.47;0.90;;;;;;;19.20;40.73;99480.31;16129852;19;129241;-42
2022/11/22 23:39:57;;;;;;;2.13;0.60;;;;;;;19.17;40.26;99490.00;16130741;19;131277;-47
2022/11/22 23:45:19;;;;;;;2.63;0.63;;;;;;;19.14;40.72;99501.66;16128289;19;129283;-42
2022/11/22 23:50:40;;;;;;;1.58;0.60;;;;;;;19.11;40.61;99501.38;16132299;19;129786;-40
2022/11/22 23:56:16;;;;;;;1.77;0.80;;;;;;;19.11;40.94;99512.47;16130158;19;130275;-41
